Time;durP1;ratioP1;P1;durP2;ratioP2;P2;SDS_P1;SDS_P2;PMS_P1;PMS_P2;Temp;Humidity;BMP_temperature;BMP_pressure;BME280_temperature;BME280_humidity;BME280_pressure;Samples;Min_cycle;Max_cycle;Signal;HPM_P1;HPM_P2
2023/09/17 00:01:34;;;;;;;5.07;4.77;;;23.90;53.30;;;;;;20601;6880;117708;-73
2023/09/17 00:04:00;;;;;;;5.93;5.53;;;23.90;53.10;;;;;;20384;6880;310657;-73
2023/09/17 00:06:26;;;;;;;4.67;4.40;;;24.00;53.00;;;;;;20570;6880;119691;-73
2023/09/17 00:08:51;;;;;;;6.05;5.53;;;23.90;52.90;;;;;;20381;6880;312173;-73
2023/09/17 00:11:17;;;;;;;5.45;5.10;;;24.00;52.80;;;;;;20600;6880;119268;-73
2023/09/17 00:13:42;;;;;;;5.43;5.03;;;23.90;52.70;;;;;;20393;6880;310618;-73
2023/09/17 00:16:08;;;;;;;5.17;4.73;;;24.00;52.70;;;;;;20581;6880;119229;-73
2023/09/17 00:18:33;;;;;;;5.80;5.03;;;23.80;52.50;;;;;;20599;6880;117872;-73
2023/09/17 00:20:59;;;;;;;5.90;5.60;;;23.50;52.80;;;;;;20382;6880;312282;-73
2023/09/17 00:23:25;;;;;;;5.80;5.50;;;23.90;52.70;;;;;;20378;6878;310610;-73
2023/09/17 00:25:51;;;;;;;5.83;5.40;;;23.90;52.70;;;;;;20595;6879;117596;-73
2023/09/17 00:28:17;;;;;;;5.20;4.73;;;23.50;52.90;;;;;;20579;6880;117599;-73
2023/09/17 00:30:43;;;;;;;5.25;4.95;;;23.50;52.90;;;;;;20381;6880;310100;-73
2023/09/17 00:33:09;;;;;;;5.75;5.32;;;23.60;53.20;;;;;;20372;6880;310085;-73
2023/09/17 00:35:34;;;;;;;5.57;5.20;;;23.90;52.70;;;;;;20580;6880;123558;-73
2023/09/17 00:38:01;;;;;;;5.32;5.03;;;23.70;52.50;;;;;;20384;6880;280637;-73
2023/09/17 00:40:31;;;;;;;5.65;5.28;;;23.80;52.70;;;;;;20323;6880;311594;-73
2023/09/17 00:42:55;;;;;;;5.07;4.70;;;24.00;52.30;;;;;;20595;6880;117664;-73
2023/09/17 00:45:22;;;;;;;5.47;5.18;;;23.80;52.30;;;;;;20387;6880;312960;-73
2023/09/17 00:47:48;;;;;;;5.40;5.10;;;23.90;52.50;;;;;;20378;6880;309725;-72
2023/09/17 00:50:13;;;;;;;4.77;4.47;;;24.10;52.10;;;;;;20581;6880;119160;-73
2023/09/17 00:52:39;;;;;;;5.68;5.32;;;23.80;52.80;;;;;;20386;6880;284242;-73
2023/09/17 00:55:05;;;;;;;5.15;4.65;;;23.90;51.80;;;;;;20592;6880;119275;-73
2023/09/17 00:57:30;;;;;;;5.20;4.90;;;23.70;51.90;;;;;;20383;6880;282224;-73
2023/09/17 00:59:56;;;;;;;4.70;4.40;;;23.70;52.00;;;;;;20582;6880;120085;-73
2023/09/17 01:02:21;;;;;;;5.40;4.90;;;23.50;52.00;;;;;;20341;6880;314373;-73
2023/09/17 01:04:51;;;;;;;5.00;4.73;;;23.60;52.00;;;;;;20362;6880;309686;-73
2023/09/17 01:07:17;;;;;;;5.20;4.82;;;24.00;51.60;;;;;;20364;6880;340355;-73
2023/09/17 01:09:43;;;;;;;4.33;4.13;;;24.00;51.60;;;;;;20576;6880;118567;-73
2023/09/17 01:12:09;;;;;;;4.80;4.40;;;23.70;51.70;;;;;;20346;6880;311752;-73
2023/09/17 01:14:34;;;;;;;5.00;4.80;;;23.70;52.30;;;;;;20364;6880;312242;-72
2023/09/17 01:17:00;;;;;;;4.62;4.43;;;23.90;52.10;;;;;;20583;6880;122108;-72
2023/09/17 01:19:32;;;;;;;4.93;4.57;;;23.70;52.20;;;;;;20574;6880;120118;-73
2023/09/17 01:21:51;;;;;;;5.50;5.00;;;23.40;52.60;;;;;;20328;6880;280942;-72
2023/09/17 01:24:26;;;;;;;4.60;4.40;;;23.40;52.50;;;;;;20543;6880;128561;-72
2023/09/17 01:26:59;;;;;;;5.50;5.10;;;23.30;52.60;;;;;;20370;6880;280534;-73
2023/09/17 01:29:25;;;;;;;4.90;4.60;;;23.30;52.80;;;;;;20559;6880;124031;-73
2023/09/17 01:31:50;;;;;;;5.37;4.87;;;23.30;52.80;;;;;;20571;6880;117673;-73
2023/09/17 01:34:16;;;;;;;5.43;5.03;;;23.00;53.00;;;;;;20567;6878;121600;-73
2023/09/17 01:36:42;;;;;;;5.43;5.12;;;22.80;53.30;;;;;;20377;6879;309239;-73
2023/09/17 01:39:13;;;;;;;5.37;5.03;;;23.30;52.80;;;;;;20366;6880;339733;-73
2023/09/17 01:41:39;;;;;;;5.47;5.10;;;23.60;52.80;;;;;;20356;6880;318840;-73
2023/09/17 01:44:06;;;;;;;4.80;4.40;;;23.60;52.70;;;;;;20567;6880;117505;-75
2023/09/17 01:46:31;;;;;;;4.80;4.60;;;23.50;52.80;;;;;;20417;6880;124121;-73
2023/09/17 01:48:58;;;;;;;5.30;4.90;;;23.20;53.10;;;;;;20610;6880;117668;-73
2023/09/17 01:51:24;;;;;;;5.00;4.60;;;22.80;53.80;;;;;;20578;6880;124182;-73
2023/09/17 01:53:51;;;;;;;4.93;4.63;;;22.80;53.90;;;;;;20563;6880;118563;-73
2023/09/17 01:56:17;;;;;;;5.10;4.80;;;22.70;54.20;;;;;;20558;6880;149028;-73
2023/09/17 01:58:42;;;;;;;4.60;4.37;;;22.50;54.20;;;;;;20580;6880;119058;-73
2023/09/17 02:01:08;;;;;;;6.20;5.50;;;22.40;54.50;;;;;;20371;6880;310969;-73
2023/09/17 02:03:33;;;;;;;7.72;5.40;;;22.70;55.20;;;;;;20558;6880;117674;-73
2023/09/17 02:05:59;;;;;;;5.17;4.80;;;22.80;54.80;;;;;;20594;6880;118993;-73
2023/09/17 02:08:26;;;;;;;5.40;5.10;;;22.70;54.80;;;;;;20365;6880;290445;-73
2023/09/17 02:10:53;;;;;;;5.90;5.50;;;22.90;54.90;;;;;;20361;6880;328372;-73
2023/09/17 02:13:18;;;;;;;5.47;5.03;;;23.30;54.30;;;;;;20370;6880;280575;-73
2023/09/17 02:15:45;;;;;;;5.60;5.25;;;23.60;53.70;;;;;;20366;6880;280891;-73
2023/09/17 02:18:10;;;;;;;4.90;4.60;;;23.80;53.60;;;;;;20560;6880;120040;-73
2023/09/17 02:20:39;;;;;;;5.20;4.82;;;23.50;53.50;;;;;;20579;6880;117858;-73
2023/09/17 02:23:06;;;;;;;5.13;4.73;;;23.10;54.00;;;;;;20575;6880;123580;-73
2023/09/17 02:25:31;;;;;;;5.87;5.43;;;22.80;55.20;;;;;;20361;6880;341454;-73
2023/09/17 02:27:57;;;;;;;5.80;5.40;;;22.80;55.20;;;;;;20379;6880;280566;-73
2023/09/17 02:30:22;;;;;;;5.45;5.10;;;23.10;55.10;;;;;;20349;6880;286176;-73
2023/09/17 02:32:48;;;;;;;5.55;5.25;;;23.00;54.50;;;;;;20574;6880;118365;-73
2023/09/17 02:35:14;;;;;;;5.23;4.93;;;23.00;54.50;;;;;;20576;6880;118847;-73
2023/09/17 02:37:40;;;;;;;6.07;5.67;;;22.30;55.30;;;;;;20574;6880;119669;-73
2023/09/17 02:40:08;;;;;;;5.57;5.17;;;22.30;55.30;;;;;;20556;6880;121575;-74
2023/09/17 02:42:32;;;;;;;5.90;5.50;;;22.10;55.70;;;;;;20561;6880;121424;-73
2023/09/17 02:44:58;;;;;;;6.60;6.10;;;21.90;56.00;;;;;;20368;6880;283695;-73
2023/09/17 02:47:25;;;;;;;6.55;6.15;;;22.10;56.50;;;;;;20371;6878;339857;-73
2023/09/17 02:49:51;;;;;;;6.73;6.23;;;22.50;56.00;;;;;;20366;6879;280559;-73
2023/09/17 02:52:16;;;;;;;6.53;6.03;;;22.80;55.60;;;;;;20332;6880;297697;-73
2023/09/17 02:54:42;;;;;;;6.00;5.70;;;22.90;55.10;;;;;;20585;6880;118305;-72
2023/09/17 02:57:08;;;;;;;6.60;6.20;;;22.80;55.20;;;;;;20373;6880;280552;-72
2023/09/17 02:59:34;;;;;;;6.70;6.30;;;22.90;55.20;;;;;;20376;6880;280469;-72
2023/09/17 03:01:59;;;;;;;6.50;5.97;;;22.90;55.20;;;;;;20351;6880;339529;-72
2023/09/17 03:04:26;;;;;;;6.70;6.30;;;23.10;55.10;;;;;;20353;6880;280868;-73
2023/09/17 03:06:52;;;;;;;6.05;5.65;;;22.90;54.90;;;;;;20568;6880;117763;-72
2023/09/17 03:09:18;;;;;;;5.80;5.47;;;23.00;54.90;;;;;;20574;6880;118048;-72
2023/09/17 03:11:42;;;;;;;6.25;5.75;;;22.60;55.30;;;;;;20358;6880;341428;-74
2023/09/17 03:14:08;;;;;;;6.63;6.23;;;22.60;55.80;;;;;;20334;6880;280478;-73
2023/09/17 03:16:34;;;;;;;6.37;5.80;;;23.00;55.10;;;;;;20350;6880;318813;-72
2023/09/17 03:19:01;;;;;;;7.13;6.43;;;23.00;54.80;;;;;;20353;6880;302060;-72
2023/09/17 03:21:28;;;;;;;5.83;5.43;;;23.10;54.60;;;;;;20555;6880;118641;-72
2023/09/17 03:23:54;;;;;;;7.00;6.57;;;22.90;54.80;;;;;;20333;6880;340259;-72
2023/09/17 03:26:20;;;;;;;6.33;5.90;;;22.80;55.10;;;;;;20353;6880;280331;-72
2023/09/17 03:28:45;;;;;;;6.60;6.20;;;22.90;55.00;;;;;;20359;6880;282328;-72
2023/09/17 03:31:10;;;;;;;6.60;6.00;;;23.00;54.90;;;;;;20370;6880;290498;-72
2023/09/17 03:33:36;;;;;;;5.83;5.43;;;23.10;54.80;;;;;;20578;6880;118865;-72
2023/09/17 03:36:03;;;;;;;6.32;5.90;;;22.80;54.90;;;;;;20358;6880;279932;-72
2023/09/17 03:38:27;;;;;;;6.70;6.20;;;22.70;55.30;;;;;;20338;6880;309332;-72
2023/09/17 03:40:53;;;;;;;5.73;5.40;;;22.80;55.10;;;;;;20565;6880;119863;-72
2023/09/17 03:43:18;;;;;;;6.15;5.75;;;22.50;55.30;;;;;;20337;6880;311733;-72
2023/09/17 03:45:45;;;;;;;5.78;5.45;;;22.50;55.50;;;;;;20579;6880;119338;-72
2023/09/17 03:48:09;;;;;;;6.03;5.37;;;22.30;55.10;;;;;;20557;6880;119781;-73
2023/09/17 03:50:39;;;;;;;5.70;5.30;;;22.00;55.90;;;;;;20576;6880;120282;-72
2023/09/17 03:53:00;;;;;;;6.43;5.97;;;21.80;56.40;;;;;;20345;6880;315056;-72
2023/09/17 03:55:28;;;;;;;6.40;5.90;;;22.20;56.30;;;;;;20355;6880;309485;-72
2023/09/17 03:57:54;;;;;;;6.30;5.90;;;22.10;56.20;;;;;;20352;6878;328730;-72
2023/09/17 04:00:21;;;;;;;6.37;6.03;;;22.40;55.80;;;;;;20314;6879;341698;-72
2023/09/17 04:02:46;;;;;;;6.20;5.30;;;22.60;55.30;;;;;;20559;6880;126102;-72
2023/09/17 04:05:13;;;;;;;6.45;5.95;;;22.40;55.40;;;;;;20356;6880;343185;-72
2023/09/17 04:07:37;;;;;;;5.90;5.47;;;22.40;55.50;;;;;;20576;6880;119033;-72
2023/09/17 04:10:05;;;;;;;5.40;5.10;;;22.20;55.60;;;;;;20561;6880;117683;-72
2023/09/17 04:12:30;;;;;;;5.50;5.10;;;21.90;56.00;;;;;;20542;6880;125581;-72
2023/09/17 04:14:55;;;;;;;6.30;5.90;;;21.60;56.40;;;;;;20373;6880;284362;-72
2023/09/17 04:17:22;;;;;;;6.87;6.30;;;22.00;56.30;;;;;;20371;6880;310715;-72
2023/09/17 04:19:47;;;;;;;6.20;5.67;;;22.10;56.40;;;;;;20579;6880;121451;-72
2023/09/17 04:22:13;;;;;;;5.62;5.12;;;22.00;56.30;;;;;;20551;6880;119013;-73
2023/09/17 04:24:38;;;;;;;6.10;5.60;;;21.70;56.60;;;;;;20560;6880;117825;-73
2023/09/17 04:27:04;;;;;;;6.57;6.18;;;21.50;57.00;;;;;;20345;6880;309856;-72
2023/09/17 04:29:32;;;;;;;6.10;5.80;;;21.60;57.00;;;;;;20562;6880;118960;-74
2023/09/17 04:31:57;;;;;;;5.73;5.43;;;21.60;57.00;;;;;;20550;6880;117916;-73
2023/09/17 04:34:25;;;;;;;5.60;5.20;;;21.40;57.20;;;;;;20366;6880;120880;-72
2023/09/17 04:36:51;;;;;;;6.57;6.18;;;21.20;57.50;;;;;;20334;6880;339049;-72
2023/09/17 04:39:16;;;;;;;6.10;5.73;;;21.50;57.80;;;;;;20564;6880;120225;-72
2023/09/17 04:41:44;;;;;;;5.53;5.23;;;21.50;57.50;;;;;;20549;6880;121695;-72
2023/09/17 04:44:10;;;;;;;5.57;5.27;;;21.30;57.60;;;;;;20555;6880;117993;-72
2023/09/17 04:46:35;;;;;;;6.47;6.07;;;21.20;58.00;;;;;;20360;6880;344843;-72
2023/09/17 04:49:01;;;;;;;6.57;5.87;;;21.40;58.30;;;;;;20553;6880;122982;-73
2023/09/17 04:51:27;;;;;;;6.60;6.20;;;21.50;58.00;;;;;;20355;6880;281414;-73
2023/09/17 04:53:52;;;;;;;6.90;6.40;;;21.70;57.80;;;;;;20346;6880;346385;-72
2023/09/17 04:56:17;;;;;;;6.75;6.25;;;22.00;57.10;;;;;;20333;6880;309840;-72
2023/09/17 04:58:46;;;;;;;7.22;6.72;;;22.30;56.50;;;;;;20578;6880;122185;-73
2023/09/17 05:01:15;;;;;;;9.60;8.90;;;22.20;56.60;;;;;;20535;6880;120652;-73
2023/09/17 05:03:42;;;;;;;7.85;7.35;;;21.90;56.90;;;;;;20343;6880;346859;-73
2023/09/17 05:06:07;;;;;;;6.32;5.90;;;21.90;56.80;;;;;;20527;6880;130937;-73
2023/09/17 05:08:33;;;;;;;6.60;6.20;;;21.80;56.70;;;;;;20523;6880;117909;-73
2023/09/17 05:10:58;;;;;;;6.87;6.37;;;21.60;57.10;;;;;;20095;6878;349688;-73
2023/09/17 05:13:26;;;;;;;6.23;5.67;;;21.80;57.30;;;;;;20477;6879;119764;-73
2023/09/17 05:15:51;;;;;;;6.60;6.20;;;21.70;57.10;;;;;;20316;6880;316013;-73
2023/09/17 05:18:18;;;;;;;7.47;6.93;;;22.20;56.70;;;;;;20316;6880;325906;-74
2023/09/17 05:20:44;;;;;;;7.40;7.00;;;22.20;56.70;;;;;;20343;6880;310638;-73
2023/09/17 05:23:12;;;;;;;7.18;6.68;;;22.40;56.30;;;;;;20340;6880;311790;-73
2023/09/17 05:25:38;;;;;;;6.63;6.07;;;22.30;56.20;;;;;;20554;6880;121687;-74
2023/09/17 05:28:06;;;;;;;5.93;5.37;;;22.30;56.20;;;;;;20563;6880;117626;-74
2023/09/17 05:30:30;;;;;;;6.62;6.03;;;22.00;56.80;;;;;;20318;6880;344116;-75
2023/09/17 05:32:56;;;;;;;6.50;6.00;;;22.20;56.40;;;;;;20338;6880;311466;-74
2023/09/17 05:35:21;;;;;;;6.73;6.33;;;22.20;56.40;;;;;;20346;6880;315819;-74
2023/09/17 05:37:47;;;;;;;7.10;6.40;;;22.40;55.90;;;;;;20360;6880;310210;-73
2023/09/17 05:40:13;;;;;;;6.57;6.17;;;22.60;55.60;;;;;;20326;6880;304581;-75
2023/09/17 05:42:39;;;;;;;7.03;6.50;;;22.60;55.50;;;;;;20342;6880;348347;-74
2023/09/17 05:45:05;;;;;;;6.70;6.23;;;22.70;55.10;;;;;;20357;6880;305740;-75
2023/09/17 05:47:31;;;;;;;5.57;5.17;;;22.70;55.10;;;;;;20541;6880;117723;-78
2023/09/17 05:49:58;;;;;;;6.30;6.00;;;22.40;55.50;;;;;;20561;6880;117492;-74
2023/09/17 05:52:22;;;;;;;6.13;5.63;;;22.00;56.10;;;;;;20509;6880;118611;-75
2023/09/17 05:54:48;;;;;;;5.50;5.13;;;21.70;56.60;;;;;;20385;6880;118946;-74
2023/09/17 05:57:15;;;;;;;5.60;5.30;;;21.30;57.50;;;;;;20490;6880;119726;-75
2023/09/17 05:59:40;;;;;;;5.73;5.43;;;21.30;57.50;;;;;;20509;6880;119263;-75
2023/09/17 06:02:05;;;;;;;6.80;6.32;;;21.20;57.90;;;;;;20333;6880;325363;-78
2023/09/17 06:04:31;;;;;;;5.87;5.47;;;21.40;58.20;;;;;;20393;6880;119242;-74
2023/09/17 06:06:57;;;;;;;6.55;6.05;;;21.50;58.00;;;;;;20343;6880;312938;-76
2023/09/17 06:09:23;;;;;;;7.47;6.20;;;21.70;58.20;;;;;;20570;6880;119440;-74
2023/09/17 06:11:49;;;;;;;6.50;5.90;;;21.60;57.50;;;;;;20540;6880;117704;-76
2023/09/17 06:14:15;;;;;;;6.43;5.93;;;21.40;58.10;;;;;;20466;6880;118219;-74
2023/09/17 06:16:41;;;;;;;6.30;5.70;;;21.40;58.10;;;;;;20546;6880;119933;-78
2023/09/17 06:19:06;;;;;;;6.60;6.20;;;21.20;58.20;;;;;;20363;6880;337353;-79
2023/09/17 06:21:35;;;;;;;5.90;5.33;;;21.70;58.50;;;;;;20561;6878;119264;-77
2023/09/17 06:24:00;;;;;;;6.80;6.30;;;21.60;58.40;;;;;;20346;6879;337006;-77
2023/09/17 06:26:26;;;;;;;6.17;5.80;;;22.00;57.80;;;;;;20578;6880;119801;-79
2023/09/17 06:28:51;;;;;;;6.37;5.87;;;22.10;57.60;;;;;;20592;6880;119120;-79
2023/09/17 06:31:18;;;;;;;5.90;5.60;;;22.10;57.90;;;;;;20581;6880;117622;-79
2023/09/17 06:33:43;;;;;;;5.63;5.23;;;22.10;57.90;;;;;;20580;6880;116715;-80
2023/09/17 06:36:09;;;;;;;5.93;5.53;;;22.10;58.00;;;;;;20544;6880;121156;-77
2023/09/17 06:38:35;;;;;;;6.85;6.45;;;22.20;57.90;;;;;;20371;6880;312728;-77
2023/09/17 06:41:00;;;;;;;5.80;5.47;;;22.60;57.20;;;;;;20591;6880;118180;-79
2023/09/17 06:43:26;;;;;;;6.40;5.90;;;22.80;56.90;;;;;;20550;6880;118624;-77
2023/09/17 06:45:53;;;;;;;6.50;6.10;;;22.80;56.90;;;;;;20377;6880;285408;-78
2023/09/17 06:48:19;;;;;;;6.37;5.87;;;23.10;56.10;;;;;;20350;6880;310316;-76
2023/09/17 06:50:45;;;;;;;6.07;5.50;;;23.50;55.50;;;;;;20580;6880;117796;-77
2023/09/17 06:53:10;;;;;;;6.50;6.05;;;23.50;55.40;;;;;;20374;6880;282845;-78
2023/09/17 06:55:36;;;;;;;6.20;5.80;;;23.70;55.00;;;;;;20365;6880;316041;-80
2023/09/17 06:58:02;;;;;;;5.57;5.20;;;24.00;54.50;;;;;;20576;6880;118635;-77
2023/09/17 07:00:27;;;;;;;6.12;5.72;;;24.00;54.60;;;;;;20358;6880;310226;-77
2023/09/17 07:02:53;;;;;;;5.77;5.37;;;24.10;54.30;;;;;;20583;6880;120176;-75
2023/09/17 07:05:19;;;;;;;5.62;5.32;;;24.20;54.60;;;;;;20589;6880;118618;-76
2023/09/17 07:07:44;;;;;;;5.30;4.90;;;24.20;55.10;;;;;;20587;6880;118733;-73
2023/09/17 07:10:10;;;;;;;6.00;5.60;;;24.20;55.10;;;;;;20355;6880;310250;-73
2023/09/17 07:12:38;;;;;;;5.67;5.37;;;24.50;53.90;;;;;;20544;6880;117771;-73
2023/09/17 07:15:03;;;;;;;5.72;5.40;;;25.20;53.00;;;;;;20298;6880;302546;-73
2023/09/17 07:17:30;;;;;;;5.85;5.45;;;25.70;51.50;;;;;;20364;6880;281002;-74
2023/09/17 07:19:56;;;;;;;5.00;4.70;;;25.70;51.50;;;;;;20574;6880;117679;-74
2023/09/17 07:22:21;;;;;;;5.33;5.03;;;25.90;51.40;;;;;;20521;6880;117719;-75
2023/09/17 07:24:48;;;;;;;5.70;5.20;;;25.80;51.50;;;;;;20332;6880;284708;-77
2023/09/17 07:27:13;;;;;;;5.70;5.30;;;25.90;51.30;;;;;;20291;6880;280812;-74
2023/09/17 07:29:40;;;;;;;5.90;5.60;;;26.20;50.60;;;;;;20327;6880;338629;-75
2023/09/17 07:32:07;;;;;;;5.80;5.40;;;26.40;50.00;;;;;;20542;6878;118063;-78
2023/09/17 07:34:32;;;;;;;5.93;5.53;;;26.20;50.10;;;;;;20339;6879;309764;-76
2023/09/17 07:37:00;;;;;;;5.37;5.07;;;26.20;50.30;;;;;;20568;6880;119587;-76
2023/09/17 07:39:23;;;;;;;5.53;5.13;;;26.00;50.70;;;;;;20556;6880;122488;-76
2023/09/17 07:41:49;;;;;;;5.95;5.57;;;25.70;51.40;;;;;;20370;6880;294930;-76
2023/09/17 07:44:15;;;;;;;5.78;5.35;;;25.60;51.40;;;;;;20577;6880;140681;-77
2023/09/17 07:46:40;;;;;;;5.65;5.35;;;25.50;51.60;;;;;;20356;6880;310093;-76
2023/09/17 07:49:07;;;;;;;5.57;5.20;;;25.90;50.90;;;;;;20390;6880;311695;-77
2023/09/17 07:51:32;;;;;;;5.53;5.23;;;25.80;51.50;;;;;;20376;6880;305043;-77
2023/09/17 07:53:59;;;;;;;6.00;4.80;;;26.00;50.60;;;;;;20599;6880;119060;-77
2023/09/17 07:56:25;;;;;;;5.40;5.10;;;26.00;50.60;;;;;;20371;6880;283907;-78
2023/09/17 07:58:52;;;;;;;4.87;4.57;;;26.00;49.80;;;;;;20590;6880;117975;-77
2023/09/17 08:01:18;;;;;;;5.37;5.07;;;26.00;50.20;;;;;;20394;6880;299505;-76
2023/09/17 08:03:45;;;;;;;5.30;4.90;;;26.60;48.50;;;;;;20386;6880;310678;-75
2023/09/17 08:06:11;;;;;;;5.30;4.63;;;26.60;48.50;;;;;;20577;6880;119513;-76
2023/09/17 08:08:35;;;;;;;5.03;4.70;;;26.70;48.50;;;;;;20385;6880;280568;-76
2023/09/17 08:11:07;;;;;;;4.77;4.47;;;27.00;47.60;;;;;;20598;6880;118783;-75
2023/09/17 08:13:32;;;;;;;5.20;4.80;;;27.10;48.10;;;;;;20383;6880;282349;-76
2023/09/17 08:15:58;;;;;;;4.95;4.62;;;27.30;47.10;;;;;;20386;6880;338510;-76
2023/09/17 08:18:23;;;;;;;5.40;5.10;;;27.60;46.50;;;;;;20574;6880;119080;-76
2023/09/17 08:20:49;;;;;;;4.70;4.30;;;27.50;46.90;;;;;;20387;6880;311150;-76
2023/09/17 08:23:15;;;;;;;5.03;4.73;;;27.50;46.60;;;;;;20387;6880;280125;-76
2023/09/17 08:25:40;;;;;;;5.35;4.68;;;27.50;45.80;;;;;;20594;6880;120663;-77
2023/09/17 08:28:06;;;;;;;5.07;4.57;;;27.30;46.20;;;;;;20378;6880;310194;-78
2023/09/17 08:30:31;;;;;;;5.00;4.70;;;27.30;46.00;;;;;;20204;6880;305282;-77
2023/09/17 08:32:59;;;;;;;4.63;4.33;;;27.30;47.80;;;;;;20598;6880;117515;-77
2023/09/17 08:35:23;;;;;;;4.93;4.70;;;27.30;47.00;;;;;;20379;6880;280068;-77
2023/09/17 08:37:49;;;;;;;4.50;4.20;;;27.40;46.90;;;;;;20600;6880;118255;-77
2023/09/17 08:40:17;;;;;;;4.90;4.53;;;27.40;47.60;;;;;;20369;6880;280192;-77
2023/09/17 08:42:41;;;;;;;4.23;3.97;;;27.40;46.90;;;;;;20589;6880;118770;-77
2023/09/17 08:45:07;;;;;;;4.33;4.10;;;27.10;47.60;;;;;;20585;6878;118870;-77
2023/09/17 08:47:33;;;;;;;4.78;4.47;;;27.10;47.50;;;;;;20370;6879;310099;-77
2023/09/17 08:49:59;;;;;;;4.93;4.60;;;27.70;47.30;;;;;;20385;6880;310206;-77
2023/09/17 08:52:25;;;;;;;4.57;4.27;;;27.70;47.30;;;;;;20584;6880;118159;-77
2023/09/17 08:54:50;;;;;;;4.53;4.23;;;27.90;47.30;;;;;;20382;6880;313760;-76
2023/09/17 08:57:18;;;;;;;4.57;4.17;;;28.20;45.80;;;;;;20376;6880;339126;-78
2023/09/17 08:59:48;;;;;;;3.73;3.53;;;28.80;44.90;;;;;;20538;6880;116660;-83
2023/09/17 09:02:16;;;;;;;4.17;3.90;;;29.10;44.70;;;;;;20568;6880;118877;-82
2023/09/17 09:04:41;;;;;;;4.33;3.50;;;29.10;44.70;;;;;;20472;6880;118104;-77
2023/09/17 09:07:07;;;;;;;3.93;3.63;;;29.30;45.10;;;;;;20588;6880;123555;-77
2023/09/17 09:09:36;;;;;;;3.60;3.40;;;29.40;45.00;;;;;;20589;6880;117586;-73
2023/09/17 09:12:02;;;;;;;4.63;3.63;;;29.40;44.90;;;;;;20593;6880;67503;-76
2023/09/17 09:14:27;;;;;;;3.93;3.70;;;29.50;44.70;;;;;;20430;6897;118908;-75
2023/09/17 09:16:53;;;;;;;4.03;3.63;;;29.60;44.60;;;;;;20310;6897;283184;-75
2023/09/17 09:19:19;;;;;;;4.18;3.83;;;30.50;42.80;;;;;;20281;6898;284552;-74
2023/09/17 09:21:44;;;;;;;4.07;3.87;;;30.50;42.80;;;;;;20559;6885;118722;-75
2023/09/17 09:24:10;;;;;;;4.27;3.87;;;30.60;42.80;;;;;;20328;6887;307794;-73
2023/09/17 09:26:35;;;;;;;3.90;3.50;;;30.80;42.50;;;;;;20346;6887;309729;-70
2023/09/17 09:29:01;;;;;;;3.43;2.83;;;31.10;40.80;;;;;;20531;6887;119251;-73
2023/09/17 09:31:26;;;;;;;3.37;3.00;;;31.10;40.30;;;;;;20539;6885;120589;-72
2023/09/17 09:33:51;;;;;;;4.30;3.53;;;31.00;40.10;;;;;;20354;6887;312943;-72
2023/09/17 09:36:18;;;;;;;4.47;2.80;;;31.10;39.60;;;;;;20547;6887;127405;-74
2023/09/17 09:38:43;;;;;;;3.55;3.25;;;31.00;39.50;;;;;;20328;6887;309493;-74
2023/09/17 09:41:08;;;;;;;6.70;3.37;;;31.10;38.60;;;;;;20550;6887;118741;-70
2023/09/17 09:43:34;;;;;;;3.70;3.40;;;31.10;39.20;;;;;;20316;6887;312927;-70
2023/09/17 09:46:04;;;;;;;4.93;3.10;;;31.20;39.20;;;;;;20529;6887;117525;-71
2023/09/17 09:48:29;;;;;;;4.57;2.90;;;31.20;39.40;;;;;;20570;6887;117697;-71
2023/09/17 09:50:55;;;;;;;4.85;3.10;;;31.10;39.60;;;;;;20337;6887;310239;-70
2023/09/17 09:53:21;;;;;;;5.40;2.42;;;31.30;38.00;;;;;;20497;6887;122034;-72
2023/09/17 09:55:46;;;;;;;3.23;2.33;;;31.40;37.40;;;;;;20516;6885;120541;-72
2023/09/17 09:58:13;;;;;;;5.53;3.00;;;31.30;36.90;;;;;;20309;6886;281158;-71
2023/09/17 10:00:44;;;;;;;4.22;2.67;;;31.40;35.60;;;;;;20341;6886;280479;-69
2023/09/17 10:03:04;;;;;;;4.50;2.30;;;31.80;35.10;;;;;;20454;6913;117610;-71
2023/09/17 10:05:32;;;;;;;5.40;2.50;;;31.80;35.50;;;;;;20303;6892;310345;-70
2023/09/17 10:07:59;;;;;;;4.80;2.80;;;32.30;33.70;;;;;;20333;6892;280076;-70
2023/09/17 10:10:24;;;;;;;2.70;2.50;;;32.30;33.60;;;;;;20533;6892;118965;-68
2023/09/17 10:12:53;;;;;;;8.90;2.60;;;32.20;34.10;;;;;;20552;6892;117830;-68
2023/09/17 10:15:19;;;;;;;3.10;2.70;;;32.00;34.80;;;;;;20327;6895;343348;-70
2023/09/17 10:17:45;;;;;;;3.43;2.50;;;32.10;34.00;;;;;;20483;6895;117610;-70
2023/09/17 10:20:11;;;;;;;4.67;2.60;;;31.90;35.00;;;;;;20507;6897;150620;-72
2023/09/17 10:22:36;;;;;;;5.00;2.50;;;31.90;35.00;;;;;;20536;6895;121563;-74
2023/09/17 10:25:05;;;;;;;2.97;2.58;;;31.80;35.30;;;;;;20202;6880;285609;-72
2023/09/17 10:27:31;;;;;;;3.57;2.47;;;32.00;35.30;;;;;;20454;6895;120600;-73
2023/09/17 10:29:56;;;;;;;4.78;2.85;;;32.10;35.70;;;;;;20506;6880;119476;-72
2023/09/17 10:32:22;;;;;;;3.78;2.47;;;32.00;36.00;;;;;;20265;6896;281422;-73
2023/09/17 10:34:49;;;;;;;3.42;2.53;;;32.20;35.50;;;;;;20472;6886;120029;-72
2023/09/17 10:37:14;;;;;;;3.97;2.27;;;32.20;35.30;;;;;;20493;6886;120162;-72
2023/09/17 10:39:40;;;;;;;6.12;2.60;;;32.20;33.90;;;;;;20320;6882;307864;-72
2023/09/17 10:42:06;;;;;;;6.33;2.53;;;32.20;33.90;;;;;;20536;6882;117987;-75
2023/09/17 10:44:33;;;;;;;5.07;2.80;;;32.30;34.10;;;;;;20208;6882;314481;-74
2023/09/17 10:47:00;;;;;;;4.15;2.60;;;32.40;34.00;;;;;;20355;6882;340845;-73
2023/09/17 10:49:26;;;;;;;4.90;2.87;;;32.70;33.80;;;;;;20338;6890;307739;-72
2023/09/17 10:51:53;;;;;;;5.73;2.47;;;32.90;34.30;;;;;;20529;6890;120805;-75
2023/09/17 10:54:18;;;;;;;3.05;2.55;;;32.90;33.80;;;;;;20314;6890;285164;-72
2023/09/17 10:56:45;;;;;;;4.47;2.60;;;32.90;33.20;;;;;;20319;6892;278949;-71
2023/09/17 10:59:09;;;;;;;3.13;2.57;;;33.10;33.40;;;;;;20555;6892;117891;-71
2023/09/17 11:01:35;;;;;;;4.03;2.43;;;33.00;33.60;;;;;;20522;6892;118070;-72
2023/09/17 11:04:01;;;;;;;4.40;2.80;;;32.70;33.80;;;;;;20323;6895;313494;-72
2023/09/17 11:06:26;;;;;;;4.77;2.57;;;32.70;33.20;;;;;;20311;6895;280714;-73
2023/09/17 11:08:51;;;;;;;6.37;2.90;;;33.00;33.50;;;;;;20336;6893;308188;-70
2023/09/17 11:11:17;;;;;;;4.40;2.23;;;33.20;33.10;;;;;;20546;6895;117996;-71
2023/09/17 11:13:43;;;;;;;3.23;2.50;;;33.00;33.10;;;;;;20347;6895;309215;-72
2023/09/17 11:16:09;;;;;;;3.90;2.63;;;33.00;32.60;;;;;;20316;6895;339673;-72
2023/09/17 11:18:35;;;;;;;4.87;2.75;;;33.40;33.00;;;;;;20325;6895;280843;-68
2023/09/17 11:21:06;;;;;;;5.10;2.70;;;33.30;32.90;;;;;;20275;6895;287741;-68
2023/09/17 11:23:44;;;;;;;4.50;2.58;;;33.50;32.70;;;;;;20266;6895;281183;-68
2023/09/17 11:26:14;;;;;;;5.03;2.30;;;33.70;32.20;;;;;;20512;6895;119124;-68
2023/09/17 11:28:39;;;;;;;6.20;2.53;;;33.50;32.60;;;;;;20540;6895;118316;-70
2023/09/17 11:31:14;;;;;;;3.33;2.20;;;33.00;33.20;;;;;;20508;6895;117676;-72
2023/09/17 11:33:37;;;;;;;2.57;2.30;;;33.00;33.20;;;;;;20508;6895;119234;-70
2023/09/17 11:36:03;;;;;;;3.72;2.17;;;32.90;33.40;;;;;;20540;6895;118615;-70
2023/09/17 11:38:30;;;;;;;3.60;2.10;;;32.70;33.60;;;;;;20529;6895;120352;-69
2023/09/17 11:41:09;;;;;;;3.60;2.50;;;32.60;33.70;;;;;;20342;6895;309720;-69
2023/09/17 11:43:34;;;;;;;4.27;2.70;;;32.70;34.30;;;;;;20325;6895;313564;-69
2023/09/17 11:46:00;;;;;;;6.75;2.80;;;33.00;32.80;;;;;;20540;6895;117771;-69
2023/09/17 11:48:26;;;;;;;3.75;3.03;;;33.00;33.10;;;;;;20301;6895;434565;-67
2023/09/17 11:50:52;;;;;;;3.50;2.80;;;33.00;32.80;;;;;;20329;6895;280862;-68
2023/09/17 11:53:19;;;;;;;5.13;2.50;;;33.20;32.80;;;;;;20227;6895;313646;-69
2023/09/17 11:55:46;;;;;;;4.07;2.53;;;33.30;32.80;;;;;;20532;6895;117696;-67
2023/09/17 11:58:16;;;;;;;4.23;2.47;;;33.30;32.80;;;;;;20519;6895;121492;-71
2023/09/17 12:00:41;;;;;;;4.13;2.47;;;33.00;32.90;;;;;;20517;6895;117866;-72
2023/09/17 12:03:09;;;;;;;3.23;2.50;;;32.80;33.30;;;;;;20285;6895;310898;-72
2023/09/17 12:05:34;;;;;;;4.25;2.62;;;32.90;33.20;;;;;;20314;6895;282411;-72
2023/09/17 12:08:01;;;;;;;3.57;2.47;;;33.10;32.70;;;;;;20536;6895;118002;-72
2023/09/17 12:10:28;;;;;;;3.70;2.63;;;33.10;32.90;;;;;;20297;6895;431972;-71
2023/09/17 12:12:51;;;;;;;2.93;2.40;;;33.10;32.30;;;;;;20517;6897;118460;-72
2023/09/17 12:15:17;;;;;;;4.10;2.50;;;33.10;32.70;;;;;;20320;6898;284331;-73
2023/09/17 12:17:43;;;;;;;4.82;2.92;;;33.20;32.80;;;;;;20318;6899;309201;-72
2023/09/17 12:20:30;;;;;;;7.50;3.50;;;33.40;32.70;;;;;;20482;6899;117855;-70
2023/09/17 12:22:40;;;;;;;4.40;2.57;;;33.50;32.70;;;;;;20252;6896;280410;-71
2023/09/17 12:25:13;;;;;;;3.80;2.55;;;33.50;32.70;;;;;;20325;6895;314414;-71
2023/09/17 12:29:57;;;;;;;3.37;2.50;;;33.70;32.60;;;;;;20325;6895;282104;-71
2023/09/17 12:32:24;;;;;;;4.07;2.10;;;33.70;32.10;;;;;;20496;6892;118205;-71